Time;durP1;ratioP1;P1;durP2;ratioP2;P2;SDS_P1;SDS_P2;PMS_P1;PMS_P2;Temp;Humidity;BMP_temperature;BMP_pressure;BME280_temperature;BME280_humidity;BME280_pressure;Samples;Min_cycle;Max_cycle;Signal;HPM_P1;HPM_P2
2022/04/17 00:01:30;;;;;;;3.38;2.50;;;13.10;93.30;;;;;;5017133;28;20017;-89
2022/04/17 00:03:55;;;;;;;6.63;3.10;;;13.10;93.40;;;;;;5017135;28;20032;-89
2022/04/17 00:06:21;;;;;;;7.10;4.00;;;13.10;93.50;;;;;;5034975;28;20044;-89
2022/04/17 00:08:47;;;;;;;9.95;4.40;;;13.10;93.30;;;;;;5017163;28;20049;-88
2022/04/17 00:11:13;;;;;;;11.45;4.65;;;13.10;93.30;;;;;;5016891;28;20029;-88
2022/04/17 00:13:38;;;;;;;6.65;3.30;;;13.10;93.20;;;;;;5016112;28;20089;-89
2022/04/17 00:16:04;;;;;;;6.47;3.22;;;13.00;93.30;;;;;;5017375;28;20418;-88
2022/04/17 00:18:30;;;;;;;7.22;3.42;;;13.00;93.20;;;;;;5016911;28;20454;-88
2022/04/17 00:20:56;;;;;;;7.53;3.67;;;13.00;93.30;;;;;;5020364;28;20089;-89
2022/04/17 00:23:22;;;;;;;5.05;3.20;;;13.00;93.40;;;;;;5037017;28;20040;-88
2022/04/17 00:25:47;;;;;;;5.88;3.05;;;13.00;93.40;;;;;;5036980;28;20146;-88
2022/04/17 00:28:13;;;;;;;6.60;3.33;;;13.00;93.40;;;;;;5036606;28;20029;-89
2022/04/17 00:30:39;;;;;;;5.43;2.75;;;12.90;93.40;;;;;;5036655;28;20066;-88
2022/04/17 00:33:04;;;;;;;5.22;2.58;;;12.90;93.40;;;;;;5054466;28;20021;-89
2022/04/17 00:35:30;;;;;;;5.10;2.95;;;12.90;93.40;;;;;;5036433;28;20443;-89
2022/04/17 00:37:56;;;;;;;7.40;2.90;;;12.90;93.30;;;;;;5054322;28;20476;-88
2022/04/17 00:40:21;;;;;;;4.72;2.58;;;12.90;93.30;;;;;;5036455;28;20083;-88
2022/04/17 00:42:47;;;;;;;4.10;2.28;;;12.90;93.30;;;;;;5035909;28;20025;-88
2022/04/17 00:45:14;;;;;;;4.03;2.40;;;12.90;93.30;;;;;;5036195;28;20056;-88
2022/04/17 00:47:40;;;;;;;4.88;2.55;;;12.90;93.30;;;;;;5054028;28;20488;-89
2022/04/17 00:50:07;;;;;;;3.85;2.22;;;12.90;93.30;;;;;;5036142;28;20025;-88
2022/04/17 00:52:33;;;;;;;5.53;2.55;;;12.80;93.30;;;;;;5035941;28;20598;-88
2022/04/17 00:55:01;;;;;;;4.28;2.33;;;12.80;93.20;;;;;;5035913;28;20138;-88
2022/04/17 00:57:27;;;;;;;5.80;2.47;;;12.80;93.20;;;;;;5035860;28;20052;-88
2022/04/17 00:59:53;;;;;;;5.18;2.40;;;12.80;93.30;;;;;;5035918;28;20386;-88
2022/04/17 01:02:18;;;;;;;4.40;2.53;;;12.80;93.20;;;;;;5035748;28;20025;-88
2022/04/17 01:04:45;;;;;;;3.63;2.00;;;12.80;93.20;;;;;;5053517;28;20032;-89
2022/04/17 01:07:11;;;;;;;3.15;1.92;;;12.80;93.20;;;;;;5035468;28;20086;-88
2022/04/17 01:09:38;;;;;;;2.75;1.90;;;12.80;93.20;;;;;;5035903;28;20029;-88
2022/04/17 01:12:08;;;;;;;3.67;1.90;;;12.70;93.20;;;;;;5035692;28;20017;-88
2022/04/17 01:14:36;;;;;;;6.63;2.05;;;12.70;93.20;;;;;;5053542;28;20453;-88
2022/04/17 01:17:02;;;;;;;3.97;1.90;;;12.70;93.10;;;;;;5053124;28;20427;-88
2022/04/17 01:19:32;;;;;;;3.13;1.90;;;12.70;93.20;;;;;;5035579;28;20025;-88
2022/04/17 01:21:57;;;;;;;4.00;2.15;;;12.70;93.20;;;;;;5024280;28;20073;-89
2022/04/17 01:27:08;;;;;;;4.50;2.10;;;12.70;93.10;;;;;;5034497;28;20036;-88
2022/04/17 01:29:36;;;;;;;4.47;2.20;;;12.70;93.00;;;;;;5015845;28;20109;-88
2022/04/17 01:32:10;;;;;;;4.88;2.10;;;12.70;93.10;;;;;;5015974;28;20022;-88
2022/04/17 01:34:36;;;;;;;3.50;2.00;;;12.60;93.00;;;;;;5015751;28;20025;-88
2022/04/17 01:37:03;;;;;;;2.85;1.77;;;12.60;93.00;;;;;;5015669;28;20029;-88
2022/04/17 01:39:29;;;;;;;4.75;2.00;;;12.60;93.10;;;;;;5015748;28;20124;-88
2022/04/17 01:41:56;;;;;;;4.30;1.80;;;12.60;93.00;;;;;;5033768;28;20029;-88
2022/04/17 01:44:22;;;;;;;2.40;1.77;;;12.60;93.10;;;;;;5015830;28;20022;-88
2022/04/17 01:46:49;;;;;;;5.55;2.08;;;12.50;93.10;;;;;;5015515;28;20033;-88
2022/04/17 01:49:15;;;;;;;2.70;1.80;;;12.50;93.00;;;;;;5015614;28;20508;-88
2022/04/17 01:51:42;;;;;;;3.17;2.10;;;12.50;93.00;;;;;;5015797;28;20018;-88
2022/04/17 01:54:10;;;;;;;3.95;2.00;;;12.50;93.10;;;;;;5015787;28;20048;-87
2022/04/17 01:56:37;;;;;;;3.63;2.13;;;12.50;93.10;;;;;;5015343;28;20021;-88
2022/04/17 01:59:05;;;;;;;6.95;2.40;;;12.50;93.10;;;;;;5015707;28;20022;-88
2022/04/17 02:01:31;;;;;;;4.00;2.22;;;12.50;93.10;;;;;;5015673;28;20075;-88
2022/04/17 02:03:57;;;;;;;5.85;2.85;;;12.50;93.20;;;;;;5016024;28;20026;-88
2022/04/17 02:06:23;;;;;;;6.22;3.28;;;12.40;93.10;;;;;;5015428;28;20021;-88
2022/04/17 02:08:51;;;;;;;4.35;3.10;;;12.50;93.10;;;;;;5015478;28;20025;-88
2022/04/17 02:11:20;;;;;;;5.20;2.55;;;12.40;93.10;;;;;;5015322;28;20022;-88
2022/04/17 02:13:46;;;;;;;4.95;2.25;;;12.40;93.00;;;;;;5016569;28;20095;-88
2022/04/17 02:16:13;;;;;;;5.18;2.10;;;12.40;93.00;;;;;;5015385;28;20028;-88
2022/04/17 02:18:38;;;;;;;4.47;2.20;;;12.40;93.00;;;;;;5033009;28;20101;-88
2022/04/17 02:21:04;;;;;;;5.15;2.22;;;12.30;93.10;;;;;;5015251;28;20046;-88
2022/04/17 02:23:30;;;;;;;3.70;2.13;;;12.30;93.00;;;;;;5015256;28;20025;-88
2022/04/17 02:25:55;;;;;;;3.45;2.05;;;12.40;93.00;;;;;;5015940;28;20512;-87
2022/04/17 02:28:21;;;;;;;4.20;2.17;;;12.40;93.00;;;;;;5033716;28;20068;-88
2022/04/17 02:30:47;;;;;;;4.15;2.15;;;12.30;93.00;;;;;;5032861;28;20045;-88
2022/04/17 02:33:12;;;;;;;4.57;1.80;;;12.30;93.10;;;;;;5015582;28;20028;-88
2022/04/17 02:35:38;;;;;;;2.95;1.95;;;12.30;93.00;;;;;;5015527;28;20124;-87
2022/04/17 02:38:04;;;;;;;4.30;2.42;;;12.30;93.00;;;;;;5036474;28;20079;-88
2022/04/17 02:40:30;;;;;;;4.78;2.10;;;12.30;93.00;;;;;;5018774;28;20037;-88
2022/04/17 02:42:57;;;;;;;6.03;2.30;;;12.30;93.00;;;;;;5018691;28;20116;-88
2022/04/17 02:45:23;;;;;;;3.10;1.90;;;12.20;93.00;;;;;;5036376;28;20462;-88
2022/04/17 02:47:51;;;;;;;2.83;1.90;;;12.20;93.00;;;;;;5018626;28;20038;-87
2022/04/17 02:50:18;;;;;;;4.03;2.42;;;12.20;93.00;;;;;;5018230;28;20477;-88
2022/04/17 02:52:45;;;;;;;2.47;1.85;;;12.20;93.00;;;;;;5018546;28;20028;-88
2022/04/17 02:55:11;;;;;;;3.30;2.00;;;12.20;93.00;;;;;;5018532;28;20045;-88
2022/04/17 02:57:37;;;;;;;3.08;1.90;;;12.20;93.00;;;;;;5018587;28;20025;-88
2022/04/17 03:00:08;;;;;;;2.85;1.83;;;12.20;92.90;;;;;;5036473;28;20531;-88
2022/04/17 03:05:38;;;;;;;3.25;1.80;;;12.10;92.90;;;;;;5036752;28;20167;-88
2022/04/17 03:08:09;;;;;;;3.55;1.73;;;12.10;92.90;;;;;;5018542;28;20032;-88
2022/04/17 03:10:42;;;;;;;3.47;1.60;;;12.10;92.90;;;;;;5018302;28;20052;-88
2022/04/17 03:13:09;;;;;;;2.65;1.52;;;12.10;92.90;;;;;;5018364;28;20551;-86
2022/04/17 03:15:39;;;;;;;2.75;1.55;;;12.10;92.90;;;;;;5017809;28;20025;-87
2022/04/17 03:18:06;;;;;;;3.42;1.90;;;12.10;92.90;;;;;;5018231;28;20057;-87
2022/04/17 03:20:32;;;;;;;2.88;1.92;;;12.10;92.90;;;;;;5017908;28;20032;-87
2022/04/17 03:22:58;;;;;;;3.30;1.75;;;12.10;92.90;;;;;;5017822;28;20574;-88
2022/04/17 03:25:24;;;;;;;4.05;1.70;;;12.10;92.90;;;;;;5018437;28;20120;-87
2022/04/17 03:27:49;;;;;;;3.75;1.88;;;12.10;93.20;;;;;;5035705;28;20061;-87
2022/04/17 03:30:16;;;;;;;4.15;1.92;;;12.00;92.80;;;;;;5017697;28;20531;-88
2022/04/17 03:32:43;;;;;;;2.42;1.70;;;12.10;92.80;;;;;;5017720;28;20120;-88
2022/04/17 03:35:10;;;;;;;3.92;1.33;;;12.00;92.80;;;;;;5017872;28;20060;-87
2022/04/17 03:37:36;;;;;;;3.10;1.70;;;12.00;92.80;;;;;;5018028;28;20059;-87
2022/04/17 03:40:02;;;;;;;4.45;2.00;;;12.00;92.80;;;;;;5017475;28;20029;-87
2022/04/17 03:42:28;;;;;;;3.65;1.83;;;12.00;92.80;;;;;;5035410;28;20029;-87
2022/04/17 03:44:54;;;;;;;3.45;1.80;;;12.00;92.80;;;;;;5018810;28;20465;-87
2022/04/17 03:47:19;;;;;;;2.17;1.55;;;12.00;92.80;;;;;;5017235;28;20041;-86
2022/04/17 03:49:45;;;;;;;2.92;1.60;;;12.00;92.70;;;;;;5017728;28;20021;-87
2022/04/17 03:52:11;;;;;;;2.88;1.70;;;11.90;92.70;;;;;;5017953;28;20021;-86
2022/04/17 03:54:37;;;;;;;2.60;1.65;;;11.90;92.70;;;;;;5017516;28;20021;-86
2022/04/17 03:57:03;;;;;;;2.35;1.63;;;11.90;92.70;;;;;;5017402;28;20032;-87
2022/04/17 03:59:31;;;;;;;3.10;1.50;;;11.90;92.70;;;;;;5017225;28;20040;-87
2022/04/17 04:01:58;;;;;;;2.88;1.60;;;11.90;92.70;;;;;;5017080;28;20029;-87
2022/04/17 04:04:23;;;;;;;4.15;1.85;;;11.90;92.70;;;;;;5017304;28;20116;-86
2022/04/17 04:06:50;;;;;;;2.85;1.90;;;11.90;92.80;;;;;;5017199;28;20117;-87
2022/04/17 04:09:16;;;;;;;2.78;1.63;;;11.80;92.70;;;;;;5035041;28;20505;-87
2022/04/17 04:11:44;;;;;;;2.20;1.63;;;11.80;92.70;;;;;;5017433;28;20056;-87
2022/04/17 04:14:10;;;;;;;2.33;1.73;;;11.80;92.70;;;;;;5016936;28;20393;-86
2022/04/17 04:16:36;;;;;;;3.67;1.70;;;11.80;92.70;;;;;;5016891;28;20448;-87
2022/04/17 04:19:02;;;;;;;3.55;1.90;;;11.80;92.70;;;;;;5017066;28;20117;-89
2022/04/17 04:21:28;;;;;;;2.33;1.75;;;11.80;92.70;;;;;;5016355;28;20052;-87
2022/04/17 04:23:55;;;;;;;2.80;1.55;;;11.80;92.70;;;;;;5017251;28;20037;-89
2022/04/17 04:26:20;;;;;;;2.70;1.75;;;11.80;92.70;;;;;;5034758;28;20013;-86
2022/04/17 04:28:46;;;;;;;2.80;1.75;;;11.70;92.70;;;;;;5034405;28;20477;-89
2022/04/17 04:31:14;;;;;;;2.80;1.88;;;11.70;92.70;;;;;;5016653;28;20358;-89
2022/04/17 04:33:42;;;;;;;3.15;1.80;;;11.70;92.70;;;;;;5016754;28;20021;-89
2022/04/17 04:36:11;;;;;;;3.15;1.88;;;11.70;92.70;;;;;;5016761;28;20048;-89
2022/04/17 04:38:38;;;;;;;4.32;2.22;;;11.70;92.70;;;;;;5034477;28;20030;-88
2022/04/17 04:41:04;;;;;;;4.72;1.83;;;11.70;92.70;;;;;;5016651;28;20514;-88
2022/04/17 04:43:30;;;;;;;2.75;1.75;;;11.70;92.70;;;;;;5016477;28;20493;-89
2022/04/17 04:46:09;;;;;;;3.92;2.03;;;11.70;92.70;;;;;;5016584;28;20053;-89
2022/04/17 04:51:25;;;;;;;2.58;1.80;;;11.60;92.70;;;;;;5034789;28;20071;-89
2022/04/17 04:53:52;;;;;;;3.53;1.77;;;11.60;92.70;;;;;;5016659;28;20028;-88
2022/04/17 04:56:19;;;;;;;3.50;1.75;;;11.60;92.70;;;;;;5016677;28;20036;-88
2022/04/17 04:58:45;;;;;;;2.53;1.80;;;11.60;92.60;;;;;;5034125;28;20492;-88
2022/04/17 05:01:11;;;;;;;6.43;1.75;;;11.60;92.70;;;;;;5015790;28;20536;-87
2022/04/17 05:03:37;;;;;;;4.25;2.08;;;11.60;92.60;;;;;;5016270;28;20025;-88
2022/04/17 05:06:03;;;;;;;4.82;2.00;;;11.60;92.60;;;;;;5034304;28;20032;-88
2022/04/17 05:08:29;;;;;;;4.15;2.05;;;11.60;92.70;;;;;;5016389;28;20125;-88
2022/04/17 05:10:55;;;;;;;3.08;1.90;;;11.60;92.70;;;;;;5016243;28;20053;-88
2022/04/17 05:13:21;;;;;;;3.72;1.98;;;11.60;92.60;;;;;;5016658;28;20448;-88
2022/04/17 05:15:47;;;;;;;5.28;2.10;;;11.60;92.60;;;;;;5016202;28;20057;-88
2022/04/17 05:18:13;;;;;;;5.20;2.20;;;11.50;92.60;;;;;;5034047;28;20064;-88
2022/04/17 05:20:39;;;;;;;3.42;2.00;;;11.50;92.60;;;;;;5034167;28;20052;-88
2022/04/17 05:23:17;;;;;;;3.80;2.13;;;11.50;92.70;;;;;;5053823;28;20060;-88
2022/04/17 05:25:44;;;;;;;3.92;2.40;;;11.50;92.60;;;;;;5053485;28;20341;-89
2022/04/17 05:28:10;;;;;;;3.30;2.15;;;11.50;92.60;;;;;;5053420;28;20063;-88
2022/04/17 05:30:36;;;;;;;2.85;1.83;;;11.50;92.70;;;;;;5035370;28;20427;-88
2022/04/17 05:33:01;;;;;;;4.85;2.10;;;11.50;92.70;;;;;;5035253;28;20388;-88
2022/04/17 05:35:27;;;;;;;3.60;2.17;;;11.50;92.70;;;;;;5035804;28;20163;-88
2022/04/17 05:37:53;;;;;;;3.55;1.90;;;11.50;92.70;;;;;;5035271;28;20036;-88
2022/04/17 05:40:18;;;;;;;3.42;1.98;;;11.50;92.80;;;;;;5035342;28;20021;-88
2022/04/17 05:42:44;;;;;;;4.05;2.03;;;11.50;92.80;;;;;;5035634;28;20021;-88
2022/04/17 05:45:10;;;;;;;4.18;2.10;;;11.50;92.80;;;;;;5035762;28;20056;-88
2022/04/17 05:47:36;;;;;;;5.57;2.30;;;11.50;92.80;;;;;;5053373;28;20033;-88
2022/04/17 05:50:03;;;;;;;4.82;2.00;;;11.50;92.80;;;;;;5035204;28;20480;-88
2022/04/17 05:52:29;;;;;;;3.33;1.85;;;11.50;92.80;;;;;;5053219;28;20063;-88
2022/04/17 05:54:56;;;;;;;4.07;2.13;;;11.50;93.20;;;;;;5035389;28;20017;-89
2022/04/17 05:57:22;;;;;;;3.22;2.10;;;11.50;92.90;;;;;;5035084;28;20025;-88
2022/04/17 05:59:48;;;;;;;4.82;2.40;;;11.40;92.90;;;;;;5035322;28;20029;-89
2022/04/17 06:02:14;;;;;;;5.30;2.15;;;11.50;92.90;;;;;;5035230;28;20484;-88
2022/04/17 06:04:39;;;;;;;2.63;1.85;;;11.50;93.00;;;;;;5035475;28;20484;-88
2022/04/17 06:07:05;;;;;;;3.40;2.20;;;11.50;93.00;;;;;;5035822;28;20029;-88
2022/04/17 06:09:31;;;;;;;4.75;2.40;;;11.50;93.00;;;;;;5035372;28;20017;-88
2022/04/17 06:11:56;;;;;;;4.45;2.30;;;11.50;93.10;;;;;;5036228;28;20025;-88
2022/04/17 06:14:22;;;;;;;3.17;2.00;;;11.50;93.10;;;;;;5057039;28;20050;-88
2022/04/17 06:16:48;;;;;;;3.83;2.20;;;11.50;93.10;;;;;;5039034;28;20028;-88
2022/04/17 06:19:14;;;;;;;3.95;2.40;;;11.50;93.20;;;;;;5038556;28;20017;-88
2022/04/17 06:21:40;;;;;;;3.90;2.50;;;11.50;93.20;;;;;;5038530;28;20041;-89
2022/04/17 06:24:06;;;;;;;3.90;2.03;;;11.50;93.20;;;;;;5038623;28;20027;-88
2022/04/17 06:26:35;;;;;;;3.97;2.03;;;11.50;93.60;;;;;;5038396;28;20083;-88
2022/04/17 06:29:07;;;;;;;3.92;2.17;;;11.50;93.30;;;;;;5038419;28;20120;-88
2022/04/17 06:31:33;;;;;;;3.70;2.13;;;11.50;93.30;;;;;;5038284;28;20028;-88
2022/04/17 06:33:59;;;;;;;4.13;2.42;;;11.50;93.40;;;;;;5038092;28;20029;-88
2022/04/17 06:36:24;;;;;;;4.75;2.03;;;11.50;93.40;;;;;;5038036;28;20560;-88
2022/04/17 06:38:50;;;;;;;5.78;2.03;;;11.50;93.50;;;;;;5056375;28;20045;-88
2022/04/17 06:41:16;;;;;;;5.18;2.15;;;11.60;93.80;;;;;;5038575;28;20472;-89
2022/04/17 06:43:41;;;;;;;5.47;2.40;;;11.60;93.50;;;;;;5038773;28;20025;-88
2022/04/17 06:46:07;;;;;;;3.30;2.22;;;11.60;93.60;;;;;;5038813;28;20025;-88
2022/04/17 06:48:33;;;;;;;3.10;2.00;;;11.60;93.60;;;;;;5056045;28;20376;-89
2022/04/17 06:50:58;;;;;;;6.32;2.35;;;11.60;93.70;;;;;;5056283;28;20048;-88
2022/04/17 06:53:25;;;;;;;3.75;2.33;;;11.60;93.70;;;;;;5038609;28;20469;-88
2022/04/17 06:55:52;;;;;;;4.55;2.50;;;11.60;93.70;;;;;;5038429;28;20029;-88
2022/04/17 06:58:18;;;;;;;3.00;2.08;;;11.60;93.70;;;;;;5038140;28;20078;-88
2022/04/17 07:00:45;;;;;;;5.38;2.40;;;11.70;93.70;;;;;;5038052;28;20112;-89
2022/04/17 07:03:11;;;;;;;3.58;2.22;;;11.70;93.70;;;;;;5037757;28;20040;-88
2022/04/17 07:05:36;;;;;;;4.53;2.28;;;11.70;93.70;;;;;;5055467;28;20029;-89
2022/04/17 07:08:04;;;;;;;4.10;2.17;;;11.70;93.60;;;;;;5037637;28;20048;-88
2022/04/17 07:10:31;;;;;;;2.80;1.90;;;11.70;93.60;;;;;;5037649;28;20070;-88
2022/04/17 07:12:57;;;;;;;3.03;1.92;;;11.80;93.50;;;;;;5038117;28;20033;-88
2022/04/17 07:15:26;;;;;;;2.58;1.88;;;11.80;93.50;;;;;;5037431;28;20075;-89
2022/04/17 07:17:53;;;;;;;3.15;2.00;;;11.80;93.50;;;;;;5037396;28;20021;-88
2022/04/17 07:20:20;;;;;;;3.50;1.85;;;11.80;93.40;;;;;;5037652;28;20029;-86
2022/04/17 07:22:47;;;;;;;3.53;2.17;;;11.90;93.30;;;;;;5054535;28;20455;-88
2022/04/17 07:25:13;;;;;;;3.03;1.70;;;11.90;93.40;;;;;;5055088;28;20025;-87
2022/04/17 07:27:50;;;;;;;3.08;1.80;;;12.00;93.30;;;;;;5055199;28;20025;-88
2022/04/17 07:30:18;;;;;;;3.25;1.85;;;12.00;93.30;;;;;;5037275;28;20115;-88
2022/04/17 07:32:47;;;;;;;4.82;2.08;;;12.00;93.10;;;;;;5037101;28;20025;-88
2022/04/17 07:35:15;;;;;;;3.72;1.88;;;12.10;93.20;;;;;;5037428;28;20469;-89
2022/04/17 07:37:41;;;;;;;2.63;1.90;;;12.10;92.90;;;;;;5037552;28;20025;-88
2022/04/17 07:40:25;;;;;;;3.40;1.80;;;12.10;93.00;;;;;;5036913;28;20036;-89
2022/04/17 07:42:51;;;;;;;3.53;1.95;;;12.20;93.00;;;;;;5037802;28;20025;-88
2022/04/17 07:45:19;;;;;;;2.92;1.75;;;12.20;92.80;;;;;;5055076;28;20388;-87
2022/04/17 07:47:46;;;;;;;4.05;2.00;;;12.20;92.90;;;;;;5036966;28;20054;-88
2022/04/17 07:50:14;;;;;;;5.68;1.67;;;12.30;92.90;;;;;;5036657;28;20025;-89
2022/04/17 07:52:41;;;;;;;2.72;1.88;;;12.30;92.80;;;;;;5036689;28;20017;-85
2022/04/17 07:55:12;;;;;;;2.83;1.90;;;12.30;92.80;;;;;;5036925;28;20017;-89
2022/04/17 08:00:24;;;;;;;3.97;1.95;;;12.30;92.80;;;;;;5055274;28;20040;-88
2022/04/17 08:03:20;;;;;;;2.53;1.63;;;12.40;92.80;;;;;;5054226;28;20151;-88
2022/04/17 08:05:46;;;;;;;2.60;1.50;;;12.40;92.70;;;;;;5036509;28;20033;-88
2022/04/17 08:08:12;;;;;;;3.75;1.75;;;12.40;92.70;;;;;;5054220;28;20025;-88
2022/04/17 08:10:39;;;;;;;2.58;1.25;;;12.50;92.60;;;;;;5036349;28;20021;-88
2022/04/17 08:13:05;;;;;;;3.00;1.63;;;12.50;92.40;;;;;;5036886;28;20114;-88
2022/04/17 08:15:34;;;;;;;3.47;1.70;;;12.50;92.40;;;;;;5036828;28;20035;-88
2022/04/17 08:17:59;;;;;;;2.95;1.58;;;12.50;92.40;;;;;;5036650;28;20095;-88
2022/04/17 08:20:25;;;;;;;3.30;1.60;;;12.50;92.40;;;;;;5054536;28;20602;-88
2022/04/17 08:22:51;;;;;;;3.60;1.67;;;12.60;92.30;;;;;;5036149;28;20051;-88
2022/04/17 08:25:16;;;;;;;2.13;1.50;;;12.60;92.10;;;;;;5054180;28;20437;-88
2022/04/17 08:27:53;;;;;;;2.17;1.35;;;12.60;92.20;;;;;;5036658;28;20024;-87
2022/04/17 08:30:25;;;;;;;2.25;1.58;;;12.70;92.10;;;;;;5036382;28;20106;-88
2022/04/17 08:32:51;;;;;;;3.05;1.27;;;12.70;92.10;;;;;;5036339;28;20025;-87
2022/04/17 08:35:17;;;;;;;2.95;1.48;;;12.70;92.10;;;;;;5052964;28;20109;-88
2022/04/17 08:37:44;;;;;;;2.33;1.45;;;12.70;92.10;;;;;;5035913;28;20074;-88
2022/04/17 08:40:10;;;;;;;2.55;1.58;;;12.80;92.10;;;;;;5035907;28;20502;-88
2022/04/17 08:42:38;;;;;;;3.53;1.42;;;12.80;91.90;;;;;;5053812;28;20441;-88
2022/04/17 08:45:04;;;;;;;2.65;1.52;;;12.80;91.90;;;;;;5036108;28;20112;-88
2022/04/17 08:47:31;;;;;;;3.67;1.60;;;12.80;91.80;;;;;;5053334;28;20425;-88
2022/04/17 08:49:57;;;;;;;1.90;1.38;;;12.90;91.80;;;;;;5035485;28;20025;-88
2022/04/17 08:52:23;;;;;;;3.05;1.60;;;12.90;91.90;;;;;;5035587;28;20029;-88
2022/04/17 08:54:50;;;;;;;4.20;1.50;;;12.90;91.70;;;;;;5035824;28;20032;-88
2022/04/17 08:57:20;;;;;;;1.88;1.20;;;13.00;91.50;;;;;;5035571;28;20032;-89
2022/04/17 08:59:46;;;;;;;2.80;1.40;;;13.00;91.60;;;;;;5035648;28;20033;-88
2022/04/17 09:02:12;;;;;;;3.47;1.65;;;13.00;91.60;;;;;;5035565;28;20032;-89
2022/04/17 09:04:41;;;;;;;1.80;1.10;;;13.00;91.50;;;;;;5035533;28;20032;-88
2022/04/17 09:07:09;;;;;;;2.83;1.23;;;13.00;91.40;;;;;;5035394;28;20074;-88
2022/04/17 09:09:38;;;;;;;2.55;1.40;;;13.00;91.50;;;;;;5035559;28;20017;-88
2022/04/17 09:12:04;;;;;;;2.05;1.30;;;13.00;91.50;;;;;;5035676;28;20027;-88
2022/04/17 09:14:30;;;;;;;3.83;1.63;;;13.00;91.50;;;;;;5053599;28;20021;-88
2022/04/17 09:16:56;;;;;;;3.15;1.50;;;13.10;91.40;;;;;;5053546;28;20032;-88
2022/04/17 09:19:25;;;;;;;2.88;1.58;;;13.10;91.40;;;;;;5035537;28;20021;-88
2022/04/17 09:21:55;;;;;;;2.25;1.48;;;13.10;91.30;;;;;;5052831;28;20056;-88
2022/04/17 09:24:24;;;;;;;4.45;1.45;;;13.10;91.30;;;;;;5035284;28;20056;-89
2022/04/17 09:26:53;;;;;;;3.85;1.55;;;13.20;91.10;;;;;;5035422;28;20079;-88
2022/04/17 09:29:21;;;;;;;2.90;1.13;;;13.20;91.40;;;;;;5035435;28;20048;-89
2022/04/17 09:31:54;;;;;;;1.98;1.20;;;13.20;91.40;;;;;;5053148;28;20067;-88
2022/04/17 09:34:20;;;;;;;3.05;1.77;;;13.20;91.40;;;;;;5035506;28;20124;-88
2022/04/17 09:36:46;;;;;;;2.30;1.17;;;13.30;91.20;;;;;;5035368;28;20069;-88
2022/04/17 09:39:15;;;;;;;2.65;1.25;;;13.30;90.90;;;;;;5035689;28;20025;-89
2022/04/17 09:41:52;;;;;;;3.35;1.30;;;13.30;91.20;;;;;;5035585;28;20075;-88
2022/04/17 09:44:57;;;;;;;2.67;1.27;;;13.30;91.00;;;;;;5035566;28;20025;-88
2022/04/17 09:47:26;;;;;;;;;;;13.40;90.80;;;;;;4960325;28;20486;-88
2022/04/17 09:50:09;;;;;;;4.05;2.05;;;13.40;90.80;;;;;;5030294;28;20275;-89
2022/04/17 09:52:41;;;;;;;1.38;0.90;;;13.50;90.90;;;;;;5039354;28;20049;-88
2022/04/17 09:55:07;;;;;;;2.15;1.17;;;13.50;90.80;;;;;;5039157;28;20057;-89
2022/04/17 09:57:37;;;;;;;2.05;1.10;;;13.50;90.70;;;;;;5039016;28;20025;-89
2022/04/17 10:00:13;;;;;;;4.82;1.27;;;13.50;90.40;;;;;;5038971;28;20029;-89
2022/04/17 10:02:40;;;;;;;1.40;0.90;;;13.60;90.30;;;;;;5038978;28;20120;-89
2022/04/17 10:05:11;;;;;;;2.30;1.20;;;13.50;90.30;;;;;;5038944;28;20052;-87
2022/04/17 10:07:45;;;;;;;1.65;1.05;;;13.60;90.20;;;;;;5039271;28;20075;-89
2022/04/17 10:10:12;;;;;;;1.42;0.90;;;13.60;90.20;;;;;;5039207;28;20017;-87
2022/04/17 10:12:45;;;;;;;2.72;1.10;;;13.60;90.10;;;;;;5038635;28;20075;-89
2022/04/17 10:15:12;;;;;;;1.63;1.00;;;13.70;89.90;;;;;;5039151;28;20389;-89
2022/04/17 10:17:39;;;;;;;1.80;1.13;;;13.70;90.30;;;;;;5038691;28;20552;-89
2022/04/17 10:20:13;;;;;;;2.13;1.00;;;13.70;90.00;;;;;;5057087;28;20033;-89
2022/04/17 10:22:42;;;;;;;3.72;1.35;;;13.70;89.80;;;;;;5038638;28;20505;-89
2022/04/17 10:25:10;;;;;;;2.30;1.20;;;13.80;89.70;;;;;;5038671;28;20033;-89
2022/04/17 10:27:35;;;;;;;2.30;1.27;;;13.80;89.30;;;;;;5038343;28;20400;-88
2022/04/17 10:30:16;;;;;;;2.95;1.30;;;13.80;89.00;;;;;;5056540;28;20017;-89
2022/04/17 10:33:17;;;;;;;3.72;1.15;;;13.90;89.20;;;;;;5038398;28;20061;-88
2022/04/17 10:36:02;;;;;;;2.30;1.00;;;13.90;88.50;;;;;;5038360;28;20120;-89
2022/04/17 10:38:54;;;;;;;2.72;1.20;;;13.90;89.20;;;;;;5056429;28;20100;-88
2022/04/17 10:41:20;;;;;;;3.70;1.15;;;13.90;88.50;;;;;;5038564;28;20036;-88
2022/04/17 10:43:46;;;;;;;1.67;1.00;;;13.90;89.10;;;;;;5038767;28;20064;-88
2022/04/17 10:46:19;;;;;;;3.95;1.27;;;14.00;89.00;;;;;;5038789;28;20056;-89
2022/04/17 10:48:45;;;;;;;2.05;0.90;;;14.00;88.70;;;;;;5038581;28;20396;-88
2022/04/17 10:51:25;;;;;;;2.80;1.10;;;14.00;89.00;;;;;;5038614;28;20074;-87
2022/04/17 10:54:07;;;;;;;1.88;1.10;;;14.00;88.30;;;;;;5039030;28;20043;-88
2022/04/17 10:56:35;;;;;;;3.65;1.27;;;14.00;88.50;;;;;;5056029;28;20021;-89
2022/04/17 10:59:05;;;;;;;2.92;1.00;;;14.10;88.30;;;;;;5037459;28;20395;-89
2022/04/17 11:01:49;;;;;;;3.70;1.00;;;14.10;87.60;;;;;;5037548;28;20025;-90
2022/04/17 11:04:27;;;;;;;1.63;0.83;;;14.10;87.60;;;;;;5037848;28;20056;-88
2022/04/17 11:07:03;;;;;;;2.88;1.13;;;14.10;87.30;;;;;;5037776;28;20267;-88
2022/04/17 11:09:29;;;;;;;1.40;0.82;;;14.10;86.80;;;;;;5037851;28;20051;-89
2022/04/17 11:12:06;;;;;;;1.50;1.00;;;14.20;87.50;;;;;;5055623;28;20036;-89
2022/04/17 11:14:32;;;;;;;1.45;0.90;;;14.20;86.90;;;;;;5037973;28;20024;-89
2022/04/17 11:16:59;;;;;;;1.40;0.80;;;14.20;87.10;;;;;;5037956;28;20024;-89
2022/04/17 11:19:25;;;;;;;1.40;0.80;;;14.20;87.00;;;;;;5038012;28;20032;-89
2022/04/17 11:21:52;;;;;;;1.83;0.95;;;14.30;86.80;;;;;;5037605;28;20041;-90
2022/04/17 11:24:19;;;;;;;3.78;0.85;;;14.30;87.20;;;;;;5037973;28;20021;-89
2022/04/17 11:26:54;;;;;;;1.27;0.90;;;14.30;86.90;;;;;;5037964;28;20405;-90
2022/04/17 11:29:38;;;;;;;;;;;14.30;86.70;;;;;;5038221;28;20392;-89
2022/04/17 11:32:16;;;;;;;1.52;0.77;;;14.30;87.20;;;;;;5038238;28;19904;-89
2022/04/17 11:34:54;;;;;;;1.73;1.00;;;14.30;87.00;;;;;;5037616;28;20013;-89
2022/04/17 11:37:25;;;;;;;2.47;1.02;;;14.40;86.70;;;;;;5037081;28;20033;-85
2022/04/17 11:39:53;;;;;;;1.75;0.88;;;14.40;86.60;;;;;;5037152;28;20124;-89
2022/04/17 11:42:19;;;;;;;1.00;0.70;;;14.40;86.50;;;;;;5055065;28;20365;-88
2022/04/17 11:44:47;;;;;;;1.45;0.82;;;14.40;86.30;;;;;;5054907;28;20028;-88
2022/04/17 11:47:17;;;;;;;1.13;0.73;;;14.40;86.60;;;;;;5037947;28;20396;-90
2022/04/17 11:49:44;;;;;;;1.92;1.00;;;14.40;86.30;;;;;;5037132;28;20219;-88
2022/04/17 11:52:16;;;;;;;3.63;0.90;;;14.40;86.30;;;;;;5036949;28;20500;-88
2022/04/17 11:54:43;;;;;;;1.33;0.80;;;14.50;86.60;;;;;;5055275;28;20095;-87
2022/04/17 11:57:09;;;;;;;1.35;0.90;;;14.50;86.70;;;;;;5054862;28;20029;-90
2022/04/17 11:59:47;;;;;;;3.53;0.90;;;14.50;86.20;;;;;;5037734;28;20036;-90
2022/04/17 12:02:16;;;;;;;1.42;0.98;;;14.50;86.40;;;;;;5037581;28;20393;-90
2022/04/17 12:04:42;;;;;;;1.40;0.90;;;14.50;85.70;;;;;;5036761;28;20032;-90
2022/04/17 12:07:10;;;;;;;2.70;1.02;;;14.60;85.70;;;;;;5037574;28;20048;-90
2022/04/17 12:09:36;;;;;;;2.75;1.00;;;14.60;85.70;;;;;;5055068;28;20043;-89
2022/04/17 12:12:03;;;;;;;4.32;1.00;;;14.60;86.10;;;;;;5036827;28;20021;-89
2022/04/17 12:14:30;;;;;;;1.67;0.77;;;14.60;86.30;;;;;;5037136;28;20060;-89
2022/04/17 12:16:56;;;;;;;4.25;1.33;;;14.60;86.50;;;;;;5036824;28;20087;-90
2022/04/17 12:19:22;;;;;;;5.60;1.00;;;14.60;86.20;;;;;;5036792;28;20108;-90
2022/04/17 12:21:48;;;;;;;1.17;0.70;;;14.70;86.00;;;;;;5054473;28;20120;-90
2022/04/17 12:24:14;;;;;;;1.70;1.10;;;14.70;86.50;;;;;;5036682;28;20025;-90
2022/04/17 12:26:41;;;;;;;3.65;1.00;;;14.80;86.00;;;;;;5054649;28;20031;-90
2022/04/17 12:29:07;;;;;;;1.80;0.88;;;14.70;86.20;;;;;;5054340;28;20056;-90
2022/04/17 12:31:36;;;;;;;1.65;0.80;;;14.80;86.30;;;;;;5036284;28;20083;-89
2022/04/17 12:34:16;;;;;;;2.75;1.17;;;14.80;86.70;;;;;;5036229;28;20021;-90
2022/04/17 12:36:42;;;;;;;1.50;0.80;;;14.80;86.60;;;;;;5054374;28;20052;-90
2022/04/17 12:39:08;;;;;;;1.55;0.70;;;14.90;86.50;;;;;;5036591;28;20075;-91
2022/04/17 12:41:48;;;;;;;2.10;0.85;;;15.00;86.30;;;;;;5036583;28;20137;-90
2022/04/17 12:44:13;;;;;;;1.85;0.90;;;15.10;86.00;;;;;;5036505;28;20482;-90
2022/04/17 12:46:45;;;;;;;2.65;0.93;;;15.30;85.40;;;;;;5053920;28;20063;-90
2022/04/17 12:49:12;;;;;;;1.50;0.90;;;15.40;85.00;;;;;;5036332;28;20032;-90
2022/04/17 12:51:40;;;;;;;1.92;0.90;;;15.60;84.70;;;;;;5054744;28;20028;-90
2022/04/17 12:54:09;;;;;;;1.88;1.08;;;15.80;84.70;;;;;;5036549;28;20556;-91
2022/04/17 12:56:36;;;;;;;2.50;0.95;;;15.90;83.90;;;;;;5036273;28;20028;-90
2022/04/17 12:59:02;;;;;;;1.60;0.90;;;16.20;83.30;;;;;;5036500;28;20036;-90
2022/04/17 13:01:32;;;;;;;1.60;0.80;;;16.50;82.00;;;;;;5036620;28;20476;-89
2022/04/17 13:04:09;;;;;;;2.63;0.90;;;16.50;81.70;;;;;;5036484;28;20053;-90